Time;durP1;ratioP1;P1;durP2;ratioP2;P2;SDS_P1;SDS_P2;PMS_P1;PMS_P2;Temp;Humidity;BMP_temperature;BMP_pressure;BME280_temperature;BME280_humidity;BME280_pressure;Samples;Min_cycle;Max_cycle;Signal;HPM_P1;HPM_P2
2021/12/29 00:02:11;;;;;;;11.90;9.20;;;;;;;;;;106798;1285;64119;-30
2021/12/29 00:04:37;;;;;;;11.20;8.80;;;;;;;;;;106894;1282;64091;-24
2021/12/29 00:07:04;;;;;;;12.10;8.90;;;;;;;;;;106990;1279;63913;-22
2021/12/29 00:09:36;;;;;;;11.50;9.30;;;;;;;;;;106945;1279;63907;-23
2021/12/29 00:12:04;;;;;;;13.00;9.80;;;;;;;;;;106974;1283;64086;-24
2021/12/29 00:14:30;;;;;;;11.00;9.00;;;;;;;;;;107015;1283;64028;-31
2021/12/29 00:16:58;;;;;;;13.20;9.00;;;;;;;;;;106986;1283;63906;-31
2021/12/29 00:19:25;;;;;;;10.50;8.80;;;;;;;;;;106948;1283;64040;-30
2021/12/29 00:21:52;;;;;;;13.10;9.70;;;;;;;;;;107016;1280;63994;-22
2021/12/29 00:24:20;;;;;;;12.60;9.10;;;;;;;;;;106641;1283;63984;-23
2021/12/29 00:26:48;;;;;;;12.50;9.00;;;;;;;;;;106904;1279;64013;-28
2021/12/29 00:29:15;;;;;;;11.10;8.10;;;;;;;;;;106952;1282;63940;-31
2021/12/29 00:31:41;;;;;;;11.90;8.40;;;;;;;;;;106976;1279;64016;-35
2021/12/29 00:34:08;;;;;;;12.60;9.00;;;;;;;;;;106954;1283;64014;-32
2021/12/29 00:36:35;;;;;;;11.10;8.50;;;;;;;;;;106968;1279;63922;-31
2021/12/29 00:39:02;;;;;;;11.20;8.40;;;;;;;;;;106862;1279;64032;-24
2021/12/29 00:41:30;;;;;;;11.20;8.30;;;;;;;;;;106859;1285;64082;-23
2021/12/29 00:43:57;;;;;;;10.50;8.00;;;;;;;;;;106975;1282;64027;-23
2021/12/29 00:46:24;;;;;;;11.10;8.50;;;;;;;;;;106981;1281;63926;-24
2021/12/29 00:48:51;;;;;;;12.20;8.90;;;;;;;;;;106897;1283;63880;-24
2021/12/29 00:51:19;;;;;;;11.60;8.70;;;;;;;;;;106910;1282;64096;-27
2021/12/29 00:53:46;;;;;;;10.30;8.40;;;;;;;;;;107042;1283;63908;-23
2021/12/29 00:56:13;;;;;;;10.80;8.30;;;;;;;;;;106958;1283;63958;-23
2021/12/29 00:58:40;;;;;;;12.10;9.00;;;;;;;;;;106859;1285;64921;-23
2021/12/29 01:01:07;;;;;;;9.90;8.00;;;;;;;;;;106880;1284;64017;-24
2021/12/29 01:03:35;;;;;;;12.30;9.00;;;;;;;;;;106973;1283;63980;-32
2021/12/29 01:06:02;;;;;;;10.60;8.60;;;;;;;;;;106942;1283;63877;-31
2021/12/29 01:08:29;;;;;;;11.70;8.30;;;;;;;;;;107000;1278;63886;-25
2021/12/29 01:10:56;;;;;;;10.30;8.30;;;;;;;;;;106979;1283;64065;-23
2021/12/29 01:13:30;;;;;;;11.20;8.30;;;;;;;;;;106994;1283;64032;-23
2021/12/29 01:16:15;;;;;;;11.90;8.60;;;;;;;;;;106997;1279;64138;-23
2021/12/29 01:18:45;;;;;;;11.90;8.60;;;;;;;;;;107000;1283;64011;-22
2021/12/29 01:21:12;;;;;;;11.20;8.90;;;;;;;;;;106807;1286;64024;-23
2021/12/29 01:23:39;;;;;;;13.40;8.90;;;;;;;;;;106977;1283;63980;-24
2021/12/29 01:26:06;;;;;;;11.00;8.60;;;;;;;;;;106990;1283;63862;-23
2021/12/29 01:28:33;;;;;;;11.20;8.30;;;;;;;;;;106818;1283;64088;-32
2021/12/29 01:31:01;;;;;;;10.40;8.00;;;;;;;;;;107001;1277;63999;-30
2021/12/29 01:33:29;;;;;;;11.00;8.30;;;;;;;;;;106931;1283;63977;-36
2021/12/29 01:35:56;;;;;;;10.10;8.30;;;;;;;;;;106991;1283;63870;-31
2021/12/29 01:38:23;;;;;;;11.20;8.40;;;;;;;;;;107187;1269;63904;-30
2021/12/29 01:40:50;;;;;;;10.80;8.30;;;;;;;;;;107072;1280;63974;-30
2021/12/29 01:43:18;;;;;;;10.50;8.20;;;;;;;;;;107029;1282;63923;-22
2021/12/29 01:45:45;;;;;;;11.00;7.70;;;;;;;;;;106958;1283;64025;-24
2021/12/29 01:48:12;;;;;;;10.60;7.90;;;;;;;;;;106956;1280;64042;-23
2021/12/29 01:50:40;;;;;;;10.20;8.10;;;;;;;;;;107017;1283;64104;-23
2021/12/29 01:53:09;;;;;;;10.00;7.60;;;;;;;;;;107015;1280;64112;-23
2021/12/29 01:55:37;;;;;;;11.00;7.60;;;;;;;;;;107012;1283;65146;-23
2021/12/29 01:58:05;;;;;;;9.50;8.00;;;;;;;;;;106995;1279;64741;-22
2021/12/29 02:00:34;;;;;;;11.00;8.20;;;;;;;;;;106996;1280;64151;-23
2021/12/29 02:03:01;;;;;;;10.00;7.90;;;;;;;;;;107044;1274;64003;-30
2021/12/29 02:05:28;;;;;;;11.30;7.50;;;;;;;;;;106993;1280;63907;-29
2021/12/29 02:07:55;;;;;;;13.80;8.20;;;;;;;;;;106987;1282;64159;-22
2021/12/29 02:10:24;;;;;;;9.30;7.40;;;;;;;;;;106998;1283;64020;-22
2021/12/29 02:12:51;;;;;;;9.80;6.90;;;;;;;;;;106958;1283;64019;-30
2021/12/29 02:15:19;;;;;;;10.50;7.50;;;;;;;;;;106986;1282;64031;-31
2021/12/29 02:17:48;;;;;;;10.50;7.40;;;;;;;;;;106908;1282;64634;-31
2021/12/29 02:20:19;;;;;;;10.60;7.50;;;;;;;;;;106998;1283;63977;-29
2021/12/29 02:22:50;;;;;;;10.10;7.60;;;;;;;;;;107011;1283;64003;-30
2021/12/29 02:27:47;;;;;;;9.30;7.20;;;;;;;;;;106894;1283;64121;-30
2021/12/29 02:30:15;;;;;;;9.60;7.10;;;;;;;;;;106920;1284;64036;-31
2021/12/29 02:32:42;;;;;;;9.50;7.00;;;;;;;;;;106974;1279;64011;-30
2021/12/29 02:35:10;;;;;;;10.10;7.80;;;;;;;;;;107023;1283;64046;-30
2021/12/29 02:37:38;;;;;;;9.90;7.40;;;;;;;;;;107003;1283;64009;-29
2021/12/29 02:40:06;;;;;;;10.00;7.40;;;;;;;;;;106983;1280;63983;-30
2021/12/29 02:42:39;;;;;;;9.40;7.30;;;;;;;;;;107048;1282;65116;-23
2021/12/29 02:45:06;;;;;;;;;;;;;;;;;;106894;1279;64134;-23
2021/12/29 02:47:33;;;;;;;9.80;7.10;;;;;;;;;;106960;1283;63989;-31
2021/12/29 02:50:00;;;;;;;10.80;7.30;;;;;;;;;;106874;1282;63930;-30
2021/12/29 02:52:27;;;;;;;10.10;7.60;;;;;;;;;;107010;1280;63877;-30
2021/12/29 02:54:54;;;;;;;10.30;7.70;;;;;;;;;;106960;1281;63852;-30
2021/12/29 02:57:21;;;;;;;9.20;6.60;;;;;;;;;;106981;1282;64025;-30
2021/12/29 02:59:48;;;;;;;9.60;7.20;;;;;;;;;;107008;1283;63989;-30
2021/12/29 03:02:15;;;;;;;9.60;7.10;;;;;;;;;;107010;1280;64002;-31
2021/12/29 03:04:42;;;;;;;9.20;7.10;;;;;;;;;;106909;1284;64081;-30
2021/12/29 03:07:09;;;;;;;9.40;6.90;;;;;;;;;;106850;1286;64229;-26
2021/12/29 03:09:36;;;;;;;11.00;6.80;;;;;;;;;;106914;1284;64112;-23
2021/12/29 03:12:03;;;;;;;9.50;7.20;;;;;;;;;;106894;1285;64118;-23
2021/12/29 03:14:30;;;;;;;8.40;6.80;;;;;;;;;;106877;1283;64040;-29
2021/12/29 03:16:57;;;;;;;10.10;7.00;;;;;;;;;;106913;1280;63936;-29
2021/12/29 03:19:24;;;;;;;10.30;7.60;;;;;;;;;;106946;1280;63914;-31
2021/12/29 03:21:51;;;;;;;8.90;6.30;;;;;;;;;;106879;1285;64030;-30
2021/12/29 03:24:21;;;;;;;9.90;7.30;;;;;;;;;;106898;1284;63904;-22
2021/12/29 03:26:48;;;;;;;10.80;7.20;;;;;;;;;;106848;1285;64032;-22
2021/12/29 03:29:15;;;;;;;10.10;7.70;;;;;;;;;;106924;1277;64010;-30
2021/12/29 03:31:43;;;;;;;8.90;7.20;;;;;;;;;;106997;1283;64016;-30
2021/12/29 03:34:10;;;;;;;10.80;7.30;;;;;;;;;;106979;1279;63991;-31
2021/12/29 03:36:37;;;;;;;9.90;7.40;;;;;;;;;;106965;1283;63892;-30
2021/12/29 03:39:04;;;;;;;8.70;6.40;;;;;;;;;;106895;1283;64134;-22
2021/12/29 03:41:31;;;;;;;8.20;6.60;;;;;;;;;;106984;1283;63919;-22
2021/12/29 03:43:58;;;;;;;10.60;7.40;;;;;;;;;;106989;1282;63990;-30
2021/12/29 03:46:26;;;;;;;9.20;7.40;;;;;;;;;;106971;1282;63991;-30
2021/12/29 03:48:53;;;;;;;9.00;7.10;;;;;;;;;;106968;1282;64015;-22
2021/12/29 03:51:20;;;;;;;9.50;7.20;;;;;;;;;;106970;1280;64081;-25
2021/12/29 03:53:47;;;;;;;10.40;7.30;;;;;;;;;;106934;1271;64066;-28
2021/12/29 03:56:13;;;;;;;9.40;7.10;;;;;;;;;;106975;1281;64138;-24
2021/12/29 03:58:44;;;;;;;8.90;6.80;;;;;;;;;;106991;1280;63904;-32
2021/12/29 04:01:12;;;;;;;9.30;7.20;;;;;;;;;;107022;1283;63965;-31
2021/12/29 04:03:42;;;;;;;9.20;7.00;;;;;;;;;;106904;1279;63923;-21
2021/12/29 04:06:09;;;;;;;9.70;7.50;;;;;;;;;;106867;1282;63921;-23
2021/12/29 04:08:36;;;;;;;9.10;7.00;;;;;;;;;;106828;1283;63835;-22
2021/12/29 04:11:03;;;;;;;9.90;7.30;;;;;;;;;;106854;1286;64171;-23
2021/12/29 04:13:30;;;;;;;9.40;6.80;;;;;;;;;;106867;1279;64043;-24
2021/12/29 04:15:57;;;;;;;9.40;7.10;;;;;;;;;;106834;1282;64043;-23
2021/12/29 04:18:27;;;;;;;9.40;7.40;;;;;;;;;;106722;1281;64389;-30
2021/12/29 04:20:57;;;;;;;10.60;7.40;;;;;;;;;;106761;1281;64023;-30
2021/12/29 04:23:29;;;;;;;10.80;7.20;;;;;;;;;;106825;1285;64019;-27
2021/12/29 04:25:57;;;;;;;9.40;6.70;;;;;;;;;;106845;1282;63985;-23
2021/12/29 04:28:25;;;;;;;9.10;7.30;;;;;;;;;;106894;1282;63992;-31
2021/12/29 04:30:54;;;;;;;9.40;6.90;;;;;;;;;;106853;1280;64018;-30
2021/12/29 04:33:22;;;;;;;9.00;7.10;;;;;;;;;;107004;1279;63982;-23
2021/12/29 04:35:49;;;;;;;9.10;7.00;;;;;;;;;;106822;1279;64008;-26
2021/12/29 04:38:18;;;;;;;8.90;7.00;;;;;;;;;;107000;1279;64084;-23
2021/12/29 04:40:45;;;;;;;9.50;7.50;;;;;;;;;;106945;1276;64018;-24
2021/12/29 04:43:12;;;;;;;9.80;6.80;;;;;;;;;;106900;1280;63996;-41
2021/12/29 04:45:40;;;;;;;9.30;7.20;;;;;;;;;;106998;1282;63989;-30
2021/12/29 04:48:12;;;;;;;9.50;7.20;;;;;;;;;;107006;1280;63999;-30
2021/12/29 04:50:51;;;;;;;10.10;7.00;;;;;;;;;;106988;1279;63925;-30
2021/12/29 04:53:20;;;;;;;9.60;7.50;;;;;;;;;;106978;1279;63984;-31
2021/12/29 04:55:49;;;;;;;9.30;7.00;;;;;;;;;;106966;1282;64589;-31
2021/12/29 04:58:18;;;;;;;10.40;7.30;;;;;;;;;;107025;1279;63997;-24
2021/12/29 05:00:46;;;;;;;9.10;7.00;;;;;;;;;;106861;1282;64105;-36
2021/12/29 05:03:13;;;;;;;8.80;6.80;;;;;;;;;;106882;1280;63983;-30
2021/12/29 05:05:52;;;;;;;10.70;7.40;;;;;;;;;;106753;1282;64140;-32
2021/12/29 05:08:27;;;;;;;9.40;7.20;;;;;;;;;;106865;1281;63935;-30
2021/12/29 05:11:02;;;;;;;9.70;6.90;;;;;;;;;;106848;1285;63907;-32
2021/12/29 05:13:30;;;;;;;10.10;7.60;;;;;;;;;;106881;1281;63952;-30
2021/12/29 05:15:58;;;;;;;9.60;7.10;;;;;;;;;;106892;1281;64096;-35
2021/12/29 05:18:25;;;;;;;10.30;7.30;;;;;;;;;;106899;1282;63992;-31
2021/12/29 05:20:52;;;;;;;8.90;6.40;;;;;;;;;;106845;1281;64115;-30
2021/12/29 05:23:20;;;;;;;9.30;6.80;;;;;;;;;;106884;1280;63967;-23
2021/12/29 05:25:47;;;;;;;9.40;6.70;;;;;;;;;;106837;1284;64140;-23
2021/12/29 05:28:14;;;;;;;9.70;6.80;;;;;;;;;;106885;1281;64029;-26
2021/12/29 05:30:41;;;;;;;9.10;6.90;;;;;;;;;;106894;1282;64103;-23
2021/12/29 05:33:07;;;;;;;8.90;6.80;;;;;;;;;;106977;1279;64013;-31
2021/12/29 05:35:34;;;;;;;8.50;6.50;;;;;;;;;;106967;1279;64064;-31
2021/12/29 05:38:02;;;;;;;10.40;7.00;;;;;;;;;;107018;1280;64627;-24
2021/12/29 05:40:29;;;;;;;9.60;7.00;;;;;;;;;;106988;1280;63946;-23
2021/12/29 05:42:57;;;;;;;9.70;7.60;;;;;;;;;;107006;1282;63954;-23
2021/12/29 05:45:24;;;;;;;9.30;6.90;;;;;;;;;;106852;1282;64709;-23
2021/12/29 05:47:52;;;;;;;9.90;7.30;;;;;;;;;;106989;1279;64028;-26
2021/12/29 05:50:21;;;;;;;9.10;6.60;;;;;;;;;;107026;1283;64555;-22
2021/12/29 05:52:48;;;;;;;9.30;7.20;;;;;;;;;;106991;1279;63952;-23
2021/12/29 05:55:15;;;;;;;10.30;7.60;;;;;;;;;;107004;1279;64439;-22
2021/12/29 05:57:42;;;;;;;9.30;7.40;;;;;;;;;;106979;1279;64010;-23
2021/12/29 06:00:11;;;;;;;10.50;7.80;;;;;;;;;;106981;1279;63999;-23
2021/12/29 06:02:38;;;;;;;10.30;7.20;;;;;;;;;;106987;1282;63924;-30
2021/12/29 06:05:06;;;;;;;10.30;7.20;;;;;;;;;;106729;1285;65138;-31
2021/12/29 06:07:34;;;;;;;8.70;6.90;;;;;;;;;;106907;1281;64022;-23
2021/12/29 06:10:02;;;;;;;9.40;7.30;;;;;;;;;;106862;1283;64160;-24
2021/12/29 06:12:28;;;;;;;8.60;6.60;;;;;;;;;;106922;1280;63873;-23
2021/12/29 06:14:56;;;;;;;9.30;7.00;;;;;;;;;;106840;1285;64029;-23
2021/12/29 06:17:22;;;;;;;9.90;7.10;;;;;;;;;;106913;1279;64631;-33
2021/12/29 06:19:49;;;;;;;9.90;7.20;;;;;;;;;;106849;1281;64115;-30
2021/12/29 06:22:16;;;;;;;9.50;6.70;;;;;;;;;;106779;1283;167925;-29
2021/12/29 06:24:44;;;;;;;9.80;6.90;;;;;;;;;;106899;1280;64025;-30
2021/12/29 06:27:11;;;;;;;9.90;7.20;;;;;;;;;;106912;1283;63952;-27
2021/12/29 06:29:37;;;;;;;9.20;7.20;;;;;;;;;;106866;1280;64472;-23
2021/12/29 06:32:04;;;;;;;9.60;7.20;;;;;;;;;;106980;1279;63945;-24
2021/12/29 06:34:31;;;;;;;10.70;7.30;;;;;;;;;;107009;1279;63952;-23
2021/12/29 06:37:03;;;;;;;10.80;7.50;;;;;;;;;;106993;1279;63993;-23
2021/12/29 06:39:30;;;;;;;10.10;7.60;;;;;;;;;;106992;1279;64080;-23
2021/12/29 06:41:57;;;;;;;9.50;7.30;;;;;;;;;;106964;1282;63893;-23
2021/12/29 06:44:24;;;;;;;10.50;7.40;;;;;;;;;;106961;1280;64461;-22
2021/12/29 06:46:51;;;;;;;9.60;7.40;;;;;;;;;;106966;1279;64122;-22
2021/12/29 06:49:18;;;;;;;9.70;7.70;;;;;;;;;;106981;1279;64651;-24
2021/12/29 06:51:44;;;;;;;9.50;7.10;;;;;;;;;;106987;1279;63910;-23
2021/12/29 06:54:12;;;;;;;10.30;7.40;;;;;;;;;;106972;1282;63905;-22
2021/12/29 06:56:38;;;;;;;10.30;7.40;;;;;;;;;;107002;1279;64080;-23
2021/12/29 06:59:05;;;;;;;10.20;6.80;;;;;;;;;;107005;1279;63908;-23
2021/12/29 07:01:33;;;;;;;10.30;7.00;;;;;;;;;;106991;1279;64007;-22
2021/12/29 07:04:00;;;;;;;9.60;7.00;;;;;;;;;;106932;1282;64062;-23
2021/12/29 07:06:27;;;;;;;9.80;7.40;;;;;;;;;;106834;1278;64148;-23
2021/12/29 07:08:54;;;;;;;10.00;7.20;;;;;;;;;;106922;1280;64033;-23
2021/12/29 07:11:21;;;;;;;10.80;7.60;;;;;;;;;;106813;1282;64000;-25
2021/12/29 07:13:49;;;;;;;10.10;7.50;;;;;;;;;;106917;1282;64010;-30
2021/12/29 07:16:15;;;;;;;11.30;7.00;;;;;;;;;;106844;1282;64076;-29
2021/12/29 07:18:43;;;;;;;10.50;7.30;;;;;;;;;;106928;1282;64015;-23
2021/12/29 07:21:09;;;;;;;9.50;7.10;;;;;;;;;;106883;1280;63907;-23
2021/12/29 07:23:36;;;;;;;9.70;6.90;;;;;;;;;;106849;1282;63999;-23
2021/12/29 07:26:03;;;;;;;9.60;6.90;;;;;;;;;;106899;1280;63887;-24
2021/12/29 07:28:30;;;;;;;10.00;7.30;;;;;;;;;;106898;1274;64087;-30
2021/12/29 07:30:57;;;;;;;10.20;7.40;;;;;;;;;;106892;1281;63921;-23
2021/12/29 07:33:25;;;;;;;10.90;8.10;;;;;;;;;;106958;1276;63985;-37
2021/12/29 07:35:52;;;;;;;10.80;8.10;;;;;;;;;;107004;1279;64070;-30
2021/12/29 07:38:19;;;;;;;9.90;7.30;;;;;;;;;;106991;1280;64045;-29
2021/12/29 07:40:46;;;;;;;10.10;7.30;;;;;;;;;;106973;1279;64119;-30
2021/12/29 07:43:13;;;;;;;9.70;7.50;;;;;;;;;;106998;1279;64026;-22
2021/12/29 07:45:42;;;;;;;10.50;7.40;;;;;;;;;;106894;1271;64029;-23
2021/12/29 07:48:10;;;;;;;10.40;7.50;;;;;;;;;;107028;1279;63945;-23
2021/12/29 07:50:37;;;;;;;11.30;7.60;;;;;;;;;;106920;1282;63874;-23
2021/12/29 07:53:05;;;;;;;12.20;7.60;;;;;;;;;;106867;1281;63935;-23
2021/12/29 07:55:32;;;;;;;10.50;7.00;;;;;;;;;;107005;1279;64016;-24
2021/12/29 07:58:01;;;;;;;11.10;7.50;;;;;;;;;;107064;1279;64110;-21
2021/12/29 08:00:28;;;;;;;11.50;8.20;;;;;;;;;;107017;1282;64355;-24
2021/12/29 08:02:56;;;;;;;10.30;7.30;;;;;;;;;;106775;1281;64019;-31
2021/12/29 08:05:23;;;;;;;11.10;8.00;;;;;;;;;;106836;1281;64051;-36
2021/12/29 08:07:50;;;;;;;9.80;7.60;;;;;;;;;;106846;1282;64035;-31
2021/12/29 08:10:17;;;;;;;10.10;7.70;;;;;;;;;;106952;1282;63902;-30
2021/12/29 08:12:44;;;;;;;10.00;7.00;;;;;;;;;;106924;1283;64000;-23
2021/12/29 08:15:11;;;;;;;10.90;8.10;;;;;;;;;;106862;1282;63931;-23
2021/12/29 08:17:39;;;;;;;10.30;7.10;;;;;;;;;;106945;1282;64028;-23
2021/12/29 08:20:07;;;;;;;11.50;7.60;;;;;;;;;;106901;1281;64008;-22
2021/12/29 08:22:34;;;;;;;10.70;7.80;;;;;;;;;;106989;1280;64014;-24
2021/12/29 08:25:02;;;;;;;11.30;7.90;;;;;;;;;;106914;1279;64057;-22
2021/12/29 08:27:28;;;;;;;12.00;7.70;;;;;;;;;;106984;1282;64639;-30
2021/12/29 08:29:55;;;;;;;11.50;7.70;;;;;;;;;;106916;1279;63968;-24
2021/12/29 08:32:22;;;;;;;10.70;8.00;;;;;;;;;;106981;1279;63983;-31
2021/12/29 08:34:49;;;;;;;10.40;7.50;;;;;;;;;;106977;1279;63966;-30
2021/12/29 08:37:16;;;;;;;10.80;8.20;;;;;;;;;;106992;1279;63995;-31
2021/12/29 08:39:43;;;;;;;12.10;8.20;;;;;;;;;;106969;1279;63894;-30
2021/12/29 08:42:11;;;;;;;10.40;8.10;;;;;;;;;;106906;1279;64031;-32
2021/12/29 08:44:38;;;;;;;12.60;8.40;;;;;;;;;;106900;1281;63941;-28
2021/12/29 08:47:05;;;;;;;12.40;8.30;;;;;;;;;;106911;1280;64019;-30
2021/12/29 08:49:32;;;;;;;13.20;9.20;;;;;;;;;;106883;1282;63875;-23
2021/12/29 08:51:59;;;;;;;12.70;8.70;;;;;;;;;;106940;1280;64161;-23
2021/12/29 08:54:27;;;;;;;10.80;8.30;;;;;;;;;;106917;1283;65107;-39
2021/12/29 08:56:54;;;;;;;12.70;9.20;;;;;;;;;;106911;1282;63996;-30
2021/12/29 08:59:22;;;;;;;11.90;8.60;;;;;;;;;;106896;1282;64002;-32
2021/12/29 09:01:49;;;;;;;12.40;8.50;;;;;;;;;;106894;1283;64045;-24
2021/12/29 09:04:16;;;;;;;12.70;8.90;;;;;;;;;;106957;1282;64091;-22
2021/12/29 09:06:43;;;;;;;13.60;9.50;;;;;;;;;;107009;1279;64009;-22
2021/12/29 09:09:10;;;;;;;12.00;8.60;;;;;;;;;;106993;1279;63906;-31
2021/12/29 09:11:37;;;;;;;12.40;8.60;;;;;;;;;;106886;1281;64033;-29
2021/12/29 09:14:05;;;;;;;12.40;9.10;;;;;;;;;;106937;1282;64674;-24
2021/12/29 09:16:32;;;;;;;12.30;8.80;;;;;;;;;;107024;1279;63971;-36
2021/12/29 09:18:59;;;;;;;12.50;9.10;;;;;;;;;;106887;1280;63989;-30
2021/12/29 09:21:28;;;;;;;12.40;9.00;;;;;;;;;;106981;1279;63961;-27
2021/12/29 09:23:55;;;;;;;12.30;9.60;;;;;;;;;;106924;1280;63958;-29
2021/12/29 09:26:22;;;;;;;12.40;9.50;;;;;;;;;;106939;1281;65067;-31
2021/12/29 09:28:50;;;;;;;12.20;9.40;;;;;;;;;;106905;1282;63919;-31
2021/12/29 09:31:19;;;;;;;14.40;9.20;;;;;;;;;;106929;1281;64007;-30
2021/12/29 09:33:46;;;;;;;12.70;8.70;;;;;;;;;;106954;1282;63896;-25
2021/12/29 09:36:15;;;;;;;13.20;9.50;;;;;;;;;;106862;1282;64033;-24
2021/12/29 09:38:42;;;;;;;12.80;9.30;;;;;;;;;;106834;1282;64003;-24
2021/12/29 09:41:11;;;;;;;12.70;9.90;;;;;;;;;;106704;1281;64134;-23
2021/12/29 09:43:39;;;;;;;15.30;10.50;;;;;;;;;;106829;1282;64023;-22
2021/12/29 09:46:06;;;;;;;12.60;9.20;;;;;;;;;;106996;1279;63915;-23
2021/12/29 09:48:34;;;;;;;14.00;10.00;;;;;;;;;;106982;1279;63958;-23
2021/12/29 09:51:07;;;;;;;13.60;10.40;;;;;;;;;;106954;1279;64027;-22
2021/12/29 09:53:34;;;;;;;12.50;10.10;;;;;;;;;;106956;1282;64904;-23
2021/12/29 09:56:01;;;;;;;12.10;9.40;;;;;;;;;;106967;1279;64048;-22
2021/12/29 09:58:28;;;;;;;12.80;10.30;;;;;;;;;;106928;1279;63960;-28
2021/12/29 10:00:56;;;;;;;14.00;9.90;;;;;;;;;;106922;1282;63908;-28
2021/12/29 10:03:25;;;;;;;14.90;10.30;;;;;;;;;;107017;1276;64007;-22
2021/12/29 10:05:53;;;;;;;12.50;9.60;;;;;;;;;;106999;1279;64041;-23
2021/12/29 10:08:24;;;;;;;14.00;9.50;;;;;;;;;;106949;1279;63987;-29
2021/12/29 10:10:53;;;;;;;16.20;10.60;;;;;;;;;;106982;1279;64544;-28
2021/12/29 10:13:21;;;;;;;15.10;10.90;;;;;;;;;;107006;1279;63854;-22
2021/12/29 10:15:51;;;;;;;15.60;10.80;;;;;;;;;;106965;1279;63916;-23
2021/12/29 10:18:20;;;;;;;15.30;10.70;;;;;;;;;;106939;1282;63883;-22
2021/12/29 10:20:51;;;;;;;16.50;10.60;;;;;;;;;;106895;1282;63913;-23
2021/12/29 10:23:23;;;;;;;15.80;10.80;;;;;;;;;;106994;1279;64170;-33
2021/12/29 10:25:52;;;;;;;17.40;11.90;;;;;;;;;;106909;1280;63980;-31
2021/12/29 10:28:20;;;;;;;18.30;11.50;;;;;;;;;;106989;1276;63989;-30
2021/12/29 10:30:53;;;;;;;15.60;11.30;;;;;;;;;;106947;1282;64085;-36
2021/12/29 10:33:20;;;;;;;16.40;11.10;;;;;;;;;;106929;1283;63976;-24
2021/12/29 10:35:47;;;;;;;16.00;11.00;;;;;;;;;;106985;1279;64010;-23
2021/12/29 10:38:22;;;;;;;16.50;11.60;;;;;;;;;;106970;1279;63983;-30
2021/12/29 10:40:50;;;;;;;15.00;10.50;;;;;;;;;;107005;1279;64016;-29
2021/12/29 10:43:17;;;;;;;17.40;12.00;;;;;;;;;;106981;1279;63915;-29
2021/12/29 10:45:46;;;;;;;14.70;10.80;;;;;;;;;;106965;1279;64102;-31
2021/12/29 10:48:20;;;;;;;15.50;10.90;;;;;;;;;;107031;1279;63997;-25
2021/12/29 10:51:03;;;;;;;16.80;11.50;;;;;;;;;;106961;1279;64113;-23
2021/12/29 10:53:31;;;;;;;17.30;11.30;;;;;;;;;;106908;1280;64150;-23
2021/12/29 10:55:58;;;;;;;16.90;10.90;;;;;;;;;;106925;1282;64356;-23
2021/12/29 10:58:27;;;;;;;15.40;11.10;;;;;;;;;;106788;1276;64650;-24
2021/12/29 11:01:00;;;;;;;15.00;11.60;;;;;;;;;;106997;1279;64003;-24
2021/12/29 11:03:27;;;;;;;;;;;;;;;;;;107006;1279;63984;-29
2021/12/29 11:05:58;;;;;;;17.30;11.70;;;;;;;;;;106978;1279;63989;-29
2021/12/29 11:08:27;;;;;;;17.40;10.90;;;;;;;;;;106914;1282;63896;-24
2021/12/29 11:11:00;;;;;;;15.80;12.30;;;;;;;;;;106917;1279;64092;-29
2021/12/29 11:13:27;;;;;;;16.00;11.50;;;;;;;;;;107012;1278;63138;-24
2021/12/29 11:15:56;;;;;;;18.80;11.70;;;;;;;;;;107003;1279;64129;-27
2021/12/29 11:18:23;;;;;;;15.80;11.30;;;;;;;;;;108423;1282;61973;-29
2021/12/29 11:20:54;;;;;;;16.20;11.90;;;;;;;;;;107806;1282;63024;-28
2021/12/29 11:23:21;;;;;;;18.50;11.10;;;;;;;;;;107910;1279;64016;-26
2021/12/29 11:25:50;;;;;;;18.40;12.40;;;;;;;;;;106954;1279;64083;-25
2021/12/29 11:28:24;;;;;;;16.00;11.50;;;;;;;;;;106894;1282;64020;-29
2021/12/29 11:30:53;;;;;;;16.20;11.90;;;;;;;;;;106959;1282;64016;-40
2021/12/29 11:33:21;;;;;;;16.60;11.60;;;;;;;;;;107015;1282;64016;-24
2021/12/29 11:35:55;;;;;;;16.50;11.50;;;;;;;;;;106938;1282;64084;-29
2021/12/29 11:38:23;;;;;;;19.10;11.70;;;;;;;;;;106952;1279;63878;-23
2021/12/29 11:40:51;;;;;;;20.80;11.70;;;;;;;;;;106949;1279;64035;-23
2021/12/29 11:43:19;;;;;;;15.80;11.80;;;;;;;;;;107152;1279;64010;-28
2021/12/29 11:45:49;;;;;;;20.20;12.90;;;;;;;;;;106859;1279;63873;-28
2021/12/29 11:48:21;;;;;;;16.70;11.90;;;;;;;;;;107471;1279;64025;-33
2021/12/29 11:50:49;;;;;;;16.90;11.40;;;;;;;;;;106907;1279;64021;-24
2021/12/29 11:53:35;;;;;;;18.90;12.20;;;;;;;;;;107082;1262;64007;-28
2021/12/29 11:56:14;;;;;;;16.30;12.00;;;;;;;;;;106969;1282;63992;-30
2021/12/29 11:58:43;;;;;;;17.10;12.40;;;;;;;;;;107012;1279;63930;-30
2021/12/29 12:01:12;;;;;;;16.70;12.50;;;;;;;;;;106980;1277;63958;-29
2021/12/29 12:03:53;;;;;;;20.00;13.50;;;;;;;;;;106959;1281;64030;-23
2021/12/29 12:06:40;;;;;;;17.60;12.40;;;;;;;;;;106980;1279;64003;-22
2021/12/29 12:09:25;;;;;;;19.10;13.10;;;;;;;;;;106931;1282;64080;-25
2021/12/29 12:11:56;;;;;;;20.60;13.30;;;;;;;;;;106948;1282;64022;-23
2021/12/29 12:14:24;;;;;;;19.10;13.30;;;;;;;;;;106926;1279;64016;-23
2021/12/29 12:16:53;;;;;;;17.40;12.90;;;;;;;;;;106962;1279;63868;-23
2021/12/29 12:19:21;;;;;;;17.60;12.70;;;;;;;;;;107007;1279;64057;-24
2021/12/29 12:21:49;;;;;;;19.60;13.10;;;;;;;;;;106957;1282;63857;-30
2021/12/29 12:24:18;;;;;;;18.60;13.20;;;;;;;;;;106973;1279;63993;-29
2021/12/29 12:26:50;;;;;;;16.40;12.90;;;;;;;;;;107004;1279;63911;-31
2021/12/29 12:29:17;;;;;;;17.30;13.30;;;;;;;;;;106986;1282;65057;-30
2021/12/29 12:31:47;;;;;;;18.50;13.30;;;;;;;;;;106996;1279;64044;-23
2021/12/29 12:34:15;;;;;;;18.50;13.70;;;;;;;;;;106990;1271;64038;-28
2021/12/29 12:36:42;;;;;;;17.40;13.20;;;;;;;;;;106844;1282;63999;-29
2021/12/29 12:39:11;;;;;;;19.00;13.80;;;;;;;;;;106971;1279;64025;-29
2021/12/29 12:41:56;;;;;;;17.80;13.10;;;;;;;;;;106802;1279;64125;-25
2021/12/29 12:44:49;;;;;;;17.70;13.20;;;;;;;;;;108063;1273;63950;-26
2021/12/29 12:47:16;;;;;;;18.30;13.00;;;;;;;;;;106923;1279;63994;-30
2021/12/29 12:49:46;;;;;;;17.80;12.80;;;;;;;;;;106937;1279;63948;-27
2021/12/29 12:52:14;;;;;;;17.70;13.40;;;;;;;;;;106923;1282;64707;-26
2021/12/29 12:55:07;;;;;;;17.70;12.80;;;;;;;;;;106958;1279;63993;-26
2021/12/29 12:57:36;;;;;;;19.90;14.50;;;;;;;;;;106939;1282;64005;-25
2021/12/29 13:00:06;;;;;;;19.00;13.10;;;;;;;;;;106989;1279;64048;-27
2021/12/29 13:02:38;;;;;;;16.00;12.60;;;;;;;;;;106981;1282;63898;-27
2021/12/29 13:05:05;;;;;;;16.60;13.20;;;;;;;;;;106941;1285;64006;-25
2021/12/29 13:07:33;;;;;;;19.30;12.80;;;;;;;;;;106965;1279;64072;-31
2021/12/29 13:10:00;;;;;;;17.00;13.70;;;;;;;;;;106922;1282;63932;-25
2021/12/29 13:12:29;;;;;;;19.30;13.70;;;;;;;;;;106920;1282;64078;-25
2021/12/29 13:15:10;;;;;;;16.40;12.50;;;;;;;;;;106936;1281;64097;-25
2021/12/29 13:17:40;;;;;;;18.70;13.50;;;;;;;;;;106981;1279;63884;-25
2021/12/29 13:20:08;;;;;;;18.80;13.60;;;;;;;;;;106977;1279;63894;-25
2021/12/29 13:22:35;;;;;;;18.60;13.10;;;;;;;;;;106963;1283;63163;-26
2021/12/29 13:25:08;;;;;;;18.50;13.60;;;;;;;;;;106985;1279;64007;-27
2021/12/29 13:27:36;;;;;;;18.10;13.40;;;;;;;;;;107019;1282;63877;-29
2021/12/29 13:30:05;;;;;;;19.30;13.90;;;;;;;;;;106989;1282;64081;-32
2021/12/29 13:32:32;;;;;;;19.40;14.50;;;;;;;;;;106935;1286;63924;-27
2021/12/29 13:35:00;;;;;;;17.90;13.80;;;;;;;;;;106984;1279;64628;-26
2021/12/29 13:37:28;;;;;;;19.80;13.80;;;;;;;;;;106994;1279;64008;-25
2021/12/29 13:39:55;;;;;;;16.60;12.90;;;;;;;;;;106981;1282;63918;-25
2021/12/29 13:42:22;;;;;;;17.20;13.70;;;;;;;;;;106999;1279;63864;-31
2021/12/29 13:44:50;;;;;;;19.20;13.50;;;;;;;;;;106975;1282;64420;-25
2021/12/29 13:47:21;;;;;;;16.80;12.90;;;;;;;;;;106969;1279;64007;-25
2021/12/29 13:49:49;;;;;;;17.00;12.80;;;;;;;;;;106902;1282;63991;-28
2021/12/29 13:52:16;;;;;;;18.00;13.70;;;;;;;;;;106976;1279;63952;-27
2021/12/29 13:54:46;;;;;;;20.50;14.30;;;;;;;;;;107036;1282;63934;-28
2021/12/29 13:57:14;;;;;;;16.70;13.70;;;;;;;;;;106998;1279;64450;-23
2021/12/29 13:59:41;;;;;;;19.50;14.00;;;;;;;;;;106911;1274;64285;-27
2021/12/29 14:02:08;;;;;;;17.80;13.70;;;;;;;;;;106968;1279;63871;-27
2021/12/29 14:04:39;;;;;;;18.50;13.00;;;;;;;;;;106965;1279;63978;-27
2021/12/29 14:07:07;;;;;;;20.10;14.60;;;;;;;;;;106936;1282;64013;-25
2021/12/29 14:09:39;;;;;;;18.60;14.50;;;;;;;;;;107000;1282;64015;-25
2021/12/29 14:12:07;;;;;;;18.10;13.70;;;;;;;;;;106925;1282;64124;-28
2021/12/29 14:14:34;;;;;;;19.60;13.50;;;;;;;;;;106974;1279;64182;-28
2021/12/29 14:17:01;;;;;;;19.40;14.60;;;;;;;;;;106988;1277;64002;-24
2021/12/29 14:19:30;;;;;;;20.40;15.00;;;;;;;;;;106978;1279;63932;-22
2021/12/29 14:21:57;;;;;;;18.20;14.80;;;;;;;;;;106952;1279;63922;-28
2021/12/29 14:24:25;;;;;;;19.50;14.50;;;;;;;;;;106709;1282;234708;-25
2021/12/29 14:28:15;;;;;;;19.30;15.40;;;;;;;;;;100391;1348;658229;-27